sensor_id;sensor_type;location;lat;lon;timestamp;P1;durP1;ratioP1;P2;durP2;ratioP2
73675;SDS011;61975;48.660;10.164;2023-07-13T00:01:14;7.50;;;3.47;;
73675;SDS011;61975;48.660;10.164;2023-07-13T00:03:41;5.05;;;3.17;;
73675;SDS011;61975;48.660;10.164;2023-07-13T00:06:07;7.28;;;3.20;;
73675;SDS011;61975;48.660;10.164;2023-07-13T00:08:33;5.70;;;3.00;;
73675;SDS011;61975;48.660;10.164;2023-07-13T00:10:59;5.68;;;3.10;;
73675;SDS011;61975;48.660;10.164;2023-07-13T00:13:28;5.85;;;2.97;;
73675;SDS011;61975;48.660;10.164;2023-07-13T00:15:56;6.47;;;3.05;;
73675;SDS011;61975;48.660;10.164;2023-07-13T00:18:22;5.30;;;2.90;;
73675;SDS011;61975;48.660;10.164;2023-07-13T00:20:48;7.30;;;2.88;;
73675;SDS011;61975;48.660;10.164;2023-07-13T00:23:14;6.80;;;2.60;;
73675;SDS011;61975;48.660;10.164;2023-07-13T00:25:39;5.43;;;2.30;;
73675;SDS011;61975;48.660;10.164;2023-07-13T00:28:04;4.83;;;2.50;;
73675;SDS011;61975;48.660;10.164;2023-07-13T00:30:30;5.00;;;2.50;;
73675;SDS011;61975;48.660;10.164;2023-07-13T00:32:56;5.30;;;2.50;;
73675;SDS011;61975;48.660;10.164;2023-07-13T00:35:21;6.18;;;2.30;;
73675;SDS011;61975;48.660;10.164;2023-07-13T00:37:47;5.60;;;2.23;;
73675;SDS011;61975;48.660;10.164;2023-07-13T00:40:12;3.87;;;1.87;;
73675;SDS011;61975;48.660;10.164;2023-07-13T00:42:39;4.50;;;1.92;;
73675;SDS011;61975;48.660;10.164;2023-07-13T00:47:36;3.77;;;2.13;;
73675;SDS011;61975;48.660;10.164;2023-07-13T00:50:02;4.70;;;2.10;;
73675;SDS011;61975;48.660;10.164;2023-07-13T00:52:28;5.90;;;2.10;;
73675;SDS011;61975;48.660;10.164;2023-07-13T00:54:54;6.97;;;2.08;;
73675;SDS011;61975;48.660;10.164;2023-07-13T00:57:21;5.10;;;2.00;;
73675;SDS011;61975;48.660;10.164;2023-07-13T00:59:49;4.23;;;1.90;;
73675;SDS011;61975;48.660;10.164;2023-07-13T01:02:19;3.85;;;1.85;;
73675;SDS011;61975;48.660;10.164;2023-07-13T01:04:46;5.32;;;2.15;;
73675;SDS011;61975;48.660;10.164;2023-07-13T01:07:12;5.00;;;2.10;;
73675;SDS011;61975;48.660;10.164;2023-07-13T01:09:38;4.70;;;1.85;;
73675;SDS011;61975;48.660;10.164;2023-07-13T01:12:03;4.00;;;2.10;;
73675;SDS011;61975;48.660;10.164;2023-07-13T01:14:29;4.68;;;2.65;;
73675;SDS011;61975;48.660;10.164;2023-07-13T01:16:54;5.23;;;1.93;;
73675;SDS011;61975;48.660;10.164;2023-07-13T01:19:27;4.18;;;1.60;;
73675;SDS011;61975;48.660;10.164;2023-07-13T01:22:11;4.28;;;1.60;;
73675;SDS011;61975;48.660;10.164;2023-07-13T01:24:40;3.72;;;1.65;;
73675;SDS011;61975;48.660;10.164;2023-07-13T01:27:08;3.73;;;1.87;;
73675;SDS011;61975;48.660;10.164;2023-07-13T01:29:35;3.08;;;1.50;;
73675;SDS011;61975;48.660;10.164;2023-07-13T01:32:07;3.05;;;1.40;;
73675;SDS011;61975;48.660;10.164;2023-07-13T01:34:35;3.05;;;1.30;;
73675;SDS011;61975;48.660;10.164;2023-07-13T01:37:02;3.60;;;1.20;;
73675;SDS011;61975;48.660;10.164;2023-07-13T01:39:28;3.73;;;1.13;;
73675;SDS011;61975;48.660;10.164;2023-07-13T01:41:53;3.50;;;1.40;;
73675;SDS011;61975;48.660;10.164;2023-07-13T01:44:18;5.63;;;1.33;;
73675;SDS011;61975;48.660;10.164;2023-07-13T01:46:44;3.97;;;1.47;;
73675;SDS011;61975;48.660;10.164;2023-07-13T01:49:09;5.17;;;1.67;;
73675;SDS011;61975;48.660;10.164;2023-07-13T01:51:34;6.30;;;1.90;;
73675;SDS011;61975;48.660;10.164;2023-07-13T01:54:00;4.57;;;1.50;;
73675;SDS011;61975;48.660;10.164;2023-07-13T01:56:25;3.57;;;1.37;;
73675;SDS011;61975;48.660;10.164;2023-07-13T01:58:51;4.37;;;1.43;;
73675;SDS011;61975;48.660;10.164;2023-07-13T02:01:17;3.07;;;1.40;;
73675;SDS011;61975;48.660;10.164;2023-07-13T02:03:42;3.40;;;1.55;;
73675;SDS011;61975;48.660;10.164;2023-07-13T02:06:07;3.37;;;1.43;;
73675;SDS011;61975;48.660;10.164;2023-07-13T02:08:33;3.73;;;1.30;;
73675;SDS011;61975;48.660;10.164;2023-07-13T02:10:59;3.97;;;1.50;;
73675;SDS011;61975;48.660;10.164;2023-07-13T02:13:24;3.47;;;1.30;;
73675;SDS011;61975;48.660;10.164;2023-07-13T02:15:50;3.73;;;1.20;;
73675;SDS011;61975;48.660;10.164;2023-07-13T02:18:16;3.47;;;1.27;;
73675;SDS011;61975;48.660;10.164;2023-07-13T02:20:42;4.00;;;1.40;;
73675;SDS011;61975;48.660;10.164;2023-07-13T02:23:08;3.40;;;1.20;;
73675;SDS011;61975;48.660;10.164;2023-07-13T02:25:33;3.37;;;1.40;;
73675;SDS011;61975;48.660;10.164;2023-07-13T02:27:58;4.00;;;1.20;;
73675;SDS011;61975;48.660;10.164;2023-07-13T02:30:24;3.65;;;1.30;;
73675;SDS011;61975;48.660;10.164;2023-07-13T02:32:50;3.20;;;1.30;;
73675;SDS011;61975;48.660;10.164;2023-07-13T02:35:15;2.92;;;1.23;;
73675;SDS011;61975;48.660;10.164;2023-07-13T02:37:41;3.27;;;1.30;;
73675;SDS011;61975;48.660;10.164;2023-07-13T02:40:06;4.83;;;1.30;;
73675;SDS011;61975;48.660;10.164;2023-07-13T02:42:33;3.45;;;1.20;;
73675;SDS011;61975;48.660;10.164;2023-07-13T02:44:59;3.38;;;1.40;;
73675;SDS011;61975;48.660;10.164;2023-07-13T02:47:25;4.57;;;1.40;;
73675;SDS011;61975;48.660;10.164;2023-07-13T02:49:51;3.15;;;1.33;;
73675;SDS011;61975;48.660;10.164;2023-07-13T02:52:17;3.97;;;1.20;;
73675;SDS011;61975;48.660;10.164;2023-07-13T02:54:42;4.50;;;1.40;;
73675;SDS011;61975;48.660;10.164;2023-07-13T02:57:07;3.63;;;1.50;;
73675;SDS011;61975;48.660;10.164;2023-07-13T02:59:33;3.30;;;1.30;;
73675;SDS011;61975;48.660;10.164;2023-07-13T03:01:58;4.33;;;1.30;;
73675;SDS011;61975;48.660;10.164;2023-07-13T03:04:25;4.32;;;1.23;;
73675;SDS011;61975;48.660;10.164;2023-07-13T03:06:50;3.40;;;1.27;;
73675;SDS011;61975;48.660;10.164;2023-07-13T03:09:16;5.00;;;1.33;;
73675;SDS011;61975;48.660;10.164;2023-07-13T03:11:41;3.97;;;1.40;;
73675;SDS011;61975;48.660;10.164;2023-07-13T03:14:07;3.80;;;1.30;;
73675;SDS011;61975;48.660;10.164;2023-07-13T03:16:33;3.00;;;1.30;;
73675;SDS011;61975;48.660;10.164;2023-07-13T03:18:58;3.17;;;1.20;;
73675;SDS011;61975;48.660;10.164;2023-07-13T03:21:23;3.53;;;1.30;;
73675;SDS011;61975;48.660;10.164;2023-07-13T03:23:49;3.23;;;1.50;;
73675;SDS011;61975;48.660;10.164;2023-07-13T03:26:15;4.07;;;1.60;;
73675;SDS011;61975;48.660;10.164;2023-07-13T03:28:43;6.07;;;1.50;;
73675;SDS011;61975;48.660;10.164;2023-07-13T03:31:10;3.83;;;1.25;;
73675;SDS011;61975;48.660;10.164;2023-07-13T03:33:39;5.18;;;1.60;;
73675;SDS011;61975;48.660;10.164;2023-07-13T03:36:05;3.50;;;1.27;;
73675;SDS011;61975;48.660;10.164;2023-07-13T03:38:31;4.63;;;1.35;;
73675;SDS011;61975;48.660;10.164;2023-07-13T03:40:57;5.07;;;1.33;;
73675;SDS011;61975;48.660;10.164;2023-07-13T03:43:23;3.40;;;1.30;;
73675;SDS011;61975;48.660;10.164;2023-07-13T03:45:48;3.50;;;1.27;;
73675;SDS011;61975;48.660;10.164;2023-07-13T03:48:14;3.53;;;1.27;;
73675;SDS011;61975;48.660;10.164;2023-07-13T03:50:40;4.03;;;1.38;;
73675;SDS011;61975;48.660;10.164;2023-07-13T03:53:05;4.63;;;1.30;;
73675;SDS011;61975;48.660;10.164;2023-07-13T03:55:31;3.97;;;1.50;;
73675;SDS011;61975;48.660;10.164;2023-07-13T03:58:05;4.47;;;1.60;;
73675;SDS011;61975;48.660;10.164;2023-07-13T04:00:48;3.38;;;1.40;;
73675;SDS011;61975;48.660;10.164;2023-07-13T04:03:15;5.03;;;1.70;;
73675;SDS011;61975;48.660;10.164;2023-07-13T04:05:41;4.93;;;1.55;;
73675;SDS011;61975;48.660;10.164;2023-07-13T04:08:06;5.03;;;1.60;;
73675;SDS011;61975;48.660;10.164;2023-07-13T04:10:32;3.57;;;1.40;;
73675;SDS011;61975;48.660;10.164;2023-07-13T04:12:57;4.27;;;1.43;;
73675;SDS011;61975;48.660;10.164;2023-07-13T04:15:23;5.80;;;1.57;;
73675;SDS011;61975;48.660;10.164;2023-07-13T04:17:48;4.40;;;1.70;;
73675;SDS011;61975;48.660;10.164;2023-07-13T04:20:13;3.37;;;1.50;;
73675;SDS011;61975;48.660;10.164;2023-07-13T04:22:39;2.90;;;1.40;;
73675;SDS011;61975;48.660;10.164;2023-07-13T04:25:04;3.23;;;1.40;;
73675;SDS011;61975;48.660;10.164;2023-07-13T04:27:30;3.75;;;1.20;;
73675;SDS011;61975;48.660;10.164;2023-07-13T04:29:55;4.33;;;1.53;;
73675;SDS011;61975;48.660;10.164;2023-07-13T04:32:21;3.53;;;1.50;;
73675;SDS011;61975;48.660;10.164;2023-07-13T04:34:46;4.77;;;1.60;;
73675;SDS011;61975;48.660;10.164;2023-07-13T04:37:11;2.80;;;1.30;;
73675;SDS011;61975;48.660;10.164;2023-07-13T04:39:37;3.73;;;1.40;;
73675;SDS011;61975;48.660;10.164;2023-07-13T04:42:03;3.50;;;1.60;;
73675;SDS011;61975;48.660;10.164;2023-07-13T04:44:28;4.07;;;1.50;;
73675;SDS011;61975;48.660;10.164;2023-07-13T04:46:54;3.60;;;1.60;;
73675;SDS011;61975;48.660;10.164;2023-07-13T04:49:19;3.80;;;1.40;;
73675;SDS011;61975;48.660;10.164;2023-07-13T04:51:45;4.53;;;1.40;;
73675;SDS011;61975;48.660;10.164;2023-07-13T04:54:10;4.43;;;1.40;;
73675;SDS011;61975;48.660;10.164;2023-07-13T04:56:36;3.42;;;1.42;;
73675;SDS011;61975;48.660;10.164;2023-07-13T04:59:01;5.57;;;1.60;;
73675;SDS011;61975;48.660;10.164;2023-07-13T05:01:27;3.80;;;1.53;;
73675;SDS011;61975;48.660;10.164;2023-07-13T05:03:52;3.65;;;1.20;;
73675;SDS011;61975;48.660;10.164;2023-07-13T05:06:17;3.37;;;1.43;;
73675;SDS011;61975;48.660;10.164;2023-07-13T05:08:43;3.37;;;1.40;;
73675;SDS011;61975;48.660;10.164;2023-07-13T05:11:08;3.90;;;1.50;;
73675;SDS011;61975;48.660;10.164;2023-07-13T05:13:34;3.80;;;1.50;;
73675;SDS011;61975;48.660;10.164;2023-07-13T05:16:00;3.83;;;1.50;;
73675;SDS011;61975;48.660;10.164;2023-07-13T05:18:28;5.22;;;1.45;;
73675;SDS011;61975;48.660;10.164;2023-07-13T05:20:57;4.93;;;1.40;;
73675;SDS011;61975;48.660;10.164;2023-07-13T05:23:31;3.55;;;1.40;;
73675;SDS011;61975;48.660;10.164;2023-07-13T05:25:57;3.92;;;1.40;;
73675;SDS011;61975;48.660;10.164;2023-07-13T05:28:23;4.75;;;1.52;;
73675;SDS011;61975;48.660;10.164;2023-07-13T05:30:50;4.20;;;1.27;;
73675;SDS011;61975;48.660;10.164;2023-07-13T05:33:15;4.38;;;1.60;;
73675;SDS011;61975;48.660;10.164;2023-07-13T05:35:41;4.22;;;1.48;;
73675;SDS011;61975;48.660;10.164;2023-07-13T05:38:06;3.47;;;1.37;;
73675;SDS011;61975;48.660;10.164;2023-07-13T05:40:32;6.97;;;1.70;;
73675;SDS011;61975;48.660;10.164;2023-07-13T05:42:58;3.60;;;1.60;;
73675;SDS011;61975;48.660;10.164;2023-07-13T05:45:23;3.43;;;1.50;;
73675;SDS011;61975;48.660;10.164;2023-07-13T05:47:48;3.43;;;1.57;;
73675;SDS011;61975;48.660;10.164;2023-07-13T05:50:14;4.10;;;1.80;;
73675;SDS011;61975;48.660;10.164;2023-07-13T05:52:39;3.20;;;1.60;;
73675;SDS011;61975;48.660;10.164;2023-07-13T05:55:05;5.10;;;1.63;;
73675;SDS011;61975;48.660;10.164;2023-07-13T05:57:30;4.20;;;1.57;;
73675;SDS011;61975;48.660;10.164;2023-07-13T05:59:56;5.32;;;1.60;;
73675;SDS011;61975;48.660;10.164;2023-07-13T06:02:22;5.77;;;1.90;;
73675;SDS011;61975;48.660;10.164;2023-07-13T06:04:47;5.20;;;1.70;;
73675;SDS011;61975;48.660;10.164;2023-07-13T06:07:13;5.20;;;1.67;;
73675;SDS011;61975;48.660;10.164;2023-07-13T06:09:38;5.53;;;1.50;;
73675;SDS011;61975;48.660;10.164;2023-07-13T06:12:03;4.07;;;1.50;;
73675;SDS011;61975;48.660;10.164;2023-07-13T06:14:30;3.63;;;1.70;;
73675;SDS011;61975;48.660;10.164;2023-07-13T06:16:55;3.83;;;1.50;;
73675;SDS011;61975;48.660;10.164;2023-07-13T06:19:20;4.97;;;1.70;;
73675;SDS011;61975;48.660;10.164;2023-07-13T06:21:46;4.37;;;1.50;;
73675;SDS011;61975;48.660;10.164;2023-07-13T06:24:11;3.57;;;1.60;;
73675;SDS011;61975;48.660;10.164;2023-07-13T06:26:37;4.40;;;1.50;;
73675;SDS011;61975;48.660;10.164;2023-07-13T06:29:02;3.37;;;1.67;;
73675;SDS011;61975;48.660;10.164;2023-07-13T06:31:27;3.63;;;1.43;;
73675;SDS011;61975;48.660;10.164;2023-07-13T06:33:53;3.70;;;1.47;;
73675;SDS011;61975;48.660;10.164;2023-07-13T06:36:18;3.30;;;1.60;;
73675;SDS011;61975;48.660;10.164;2023-07-13T06:38:44;5.40;;;1.53;;
73675;SDS011;61975;48.660;10.164;2023-07-13T06:41:09;3.53;;;1.33;;
73675;SDS011;61975;48.660;10.164;2023-07-13T06:43:35;3.38;;;1.40;;
73675;SDS011;61975;48.660;10.164;2023-07-13T06:46:00;5.10;;;1.70;;
73675;SDS011;61975;48.660;10.164;2023-07-13T06:48:26;3.77;;;1.40;;
73675;SDS011;61975;48.660;10.164;2023-07-13T06:50:52;3.97;;;1.50;;
73675;SDS011;61975;48.660;10.164;2023-07-13T06:53:18;4.13;;;1.77;;
73675;SDS011;61975;48.660;10.164;2023-07-13T06:55:45;6.30;;;1.60;;
73675;SDS011;61975;48.660;10.164;2023-07-13T06:58:11;5.57;;;1.60;;
73675;SDS011;61975;48.660;10.164;2023-07-13T07:00:36;3.10;;;1.60;;
73675;SDS011;61975;48.660;10.164;2023-07-13T07:03:02;5.73;;;1.60;;
73675;SDS011;61975;48.660;10.164;2023-07-13T07:05:28;3.73;;;1.57;;
73675;SDS011;61975;48.660;10.164;2023-07-13T07:07:54;3.63;;;1.70;;
73675;SDS011;61975;48.660;10.164;2023-07-13T07:10:20;4.15;;;1.60;;
73675;SDS011;61975;48.660;10.164;2023-07-13T07:12:46;3.40;;;1.60;;
73675;SDS011;61975;48.660;10.164;2023-07-13T07:15:11;3.20;;;1.63;;
73675;SDS011;61975;48.660;10.164;2023-07-13T07:17:37;3.85;;;1.48;;
73675;SDS011;61975;48.660;10.164;2023-07-13T07:20:03;3.95;;;1.50;;
73675;SDS011;61975;48.660;10.164;2023-07-13T07:22:29;4.00;;;1.50;;
73675;SDS011;61975;48.660;10.164;2023-07-13T07:24:55;3.67;;;1.53;;
73675;SDS011;61975;48.660;10.164;2023-07-13T07:27:22;2.50;;;1.23;;
73675;SDS011;61975;48.660;10.164;2023-07-13T07:29:47;4.18;;;1.50;;
73675;SDS011;61975;48.660;10.164;2023-07-13T07:32:13;3.57;;;1.70;;
73675;SDS011;61975;48.660;10.164;2023-07-13T07:34:38;3.60;;;1.23;;
73675;SDS011;61975;48.660;10.164;2023-07-13T07:37:04;6.30;;;1.50;;
73675;SDS011;61975;48.660;10.164;2023-07-13T07:39:29;3.65;;;1.30;;
73675;SDS011;61975;48.660;10.164;2023-07-13T07:41:55;3.20;;;1.30;;
73675;SDS011;61975;48.660;10.164;2023-07-13T07:44:20;3.73;;;1.27;;
73675;SDS011;61975;48.660;10.164;2023-07-13T07:46:46;4.87;;;1.60;;
73675;SDS011;61975;48.660;10.164;2023-07-13T07:49:11;3.17;;;1.40;;
73675;SDS011;61975;48.660;10.164;2023-07-13T07:51:37;4.85;;;1.30;;
73675;SDS011;61975;48.660;10.164;2023-07-13T07:54:03;3.80;;;1.17;;
73675;SDS011;61975;48.660;10.164;2023-07-13T07:56:29;2.88;;;1.25;;
73675;SDS011;61975;48.660;10.164;2023-07-13T07:58:55;3.40;;;1.30;;
73675;SDS011;61975;48.660;10.164;2023-07-13T08:01:20;3.33;;;1.30;;
73675;SDS011;61975;48.660;10.164;2023-07-13T08:03:47;2.60;;;1.10;;
73675;SDS011;61975;48.660;10.164;2023-07-13T08:06:12;3.90;;;1.30;;
73675;SDS011;61975;48.660;10.164;2023-07-13T08:08:38;3.33;;;1.10;;
73675;SDS011;61975;48.660;10.164;2023-07-13T08:11:04;2.83;;;1.00;;
73675;SDS011;61975;48.660;10.164;2023-07-13T08:13:32;6.73;;;1.20;;
73675;SDS011;61975;48.660;10.164;2023-07-13T08:15:57;2.97;;;1.00;;
73675;SDS011;61975;48.660;10.164;2023-07-13T08:18:23;3.03;;;1.00;;
73675;SDS011;61975;48.660;10.164;2023-07-13T08:20:49;2.80;;;1.10;;
73675;SDS011;61975;48.660;10.164;2023-07-13T08:23:14;3.77;;;1.07;;
73675;SDS011;61975;48.660;10.164;2023-07-13T08:25:41;2.88;;;1.20;;
73675;SDS011;61975;48.660;10.164;2023-07-13T08:28:07;3.30;;;1.30;;
73675;SDS011;61975;48.660;10.164;2023-07-13T08:30:33;2.67;;;1.00;;
73675;SDS011;61975;48.660;10.164;2023-07-13T08:32:58;3.70;;;1.30;;
73675;SDS011;61975;48.660;10.164;2023-07-13T08:35:24;4.72;;;1.10;;
73675;SDS011;61975;48.660;10.164;2023-07-13T08:37:50;3.17;;;0.90;;
73675;SDS011;61975;48.660;10.164;2023-07-13T08:40:16;2.60;;;1.00;;
73675;SDS011;61975;48.660;10.164;2023-07-13T08:42:45;2.90;;;0.90;;
73675;SDS011;61975;48.660;10.164;2023-07-13T08:50:35;2.90;;;0.98;;
73675;SDS011;61975;48.660;10.164;2023-07-13T08:53:08;3.10;;;0.90;;
73675;SDS011;61975;48.660;10.164;2023-07-13T08:55:37;2.95;;;0.90;;
73675;SDS011;61975;48.660;10.164;2023-07-13T08:58:15;2.60;;;0.88;;
73675;SDS011;61975;48.660;10.164;2023-07-13T09:00:55;3.47;;;0.90;;
73675;SDS011;61975;48.660;10.164;2023-07-13T09:03:38;4.03;;;1.02;;
73675;SDS011;61975;48.660;10.164;2023-07-13T09:06:08;2.78;;;1.00;;
73675;SDS011;61975;48.660;10.164;2023-07-13T09:16:50;2.95;;;1.02;;
73675;SDS011;61975;48.660;10.164;2023-07-13T09:19:26;2.80;;;1.15;;
73675;SDS011;61975;48.660;10.164;2023-07-13T09:21:55;2.93;;;1.30;;
73675;SDS011;61975;48.660;10.164;2023-07-13T09:27:03;3.25;;;1.27;;
73675;SDS011;61975;48.660;10.164;2023-07-13T09:29:38;3.17;;;1.10;;
73675;SDS011;61975;48.660;10.164;2023-07-13T09:32:09;4.07;;;1.52;;
73675;SDS011;61975;48.660;10.164;2023-07-13T09:34:38;3.67;;;1.23;;
73675;SDS011;61975;48.660;10.164;2023-07-13T09:37:03;3.70;;;1.60;;
73675;SDS011;61975;48.660;10.164;2023-07-13T09:39:33;3.80;;;1.40;;
73675;SDS011;61975;48.660;10.164;2023-07-13T09:47:17;3.38;;;1.17;;
73675;SDS011;61975;48.660;10.164;2023-07-13T09:49:43;3.45;;;1.30;;
73675;SDS011;61975;48.660;10.164;2023-07-13T09:52:10;4.03;;;1.20;;
73675;SDS011;61975;48.660;10.164;2023-07-13T09:54:39;3.70;;;1.23;;
73675;SDS011;61975;48.660;10.164;2023-07-13T09:57:15;3.80;;;1.40;;
73675;SDS011;61975;48.660;10.164;2023-07-13T09:59:49;4.18;;;1.50;;
73675;SDS011;61975;48.660;10.164;2023-07-13T10:04:47;3.00;;;1.40;;
73675;SDS011;61975;48.660;10.164;2023-07-13T10:07:22;2.63;;;1.10;;
73675;SDS011;61975;48.660;10.164;2023-07-13T10:09:51;4.55;;;1.50;;
73675;SDS011;61975;48.660;10.164;2023-07-13T10:12:19;3.58;;;1.20;;
73675;SDS011;61975;48.660;10.164;2023-07-13T10:14:45;3.47;;;1.50;;
73675;SDS011;61975;48.660;10.164;2023-07-13T10:17:12;3.57;;;1.50;;
73675;SDS011;61975;48.660;10.164;2023-07-13T10:19:39;2.92;;;1.25;;
73675;SDS011;61975;48.660;10.164;2023-07-13T10:22:20;4.85;;;1.42;;
73675;SDS011;61975;48.660;10.164;2023-07-13T10:24:52;3.33;;;1.30;;
73675;SDS011;61975;48.660;10.164;2023-07-13T10:27:20;4.13;;;1.30;;
73675;SDS011;61975;48.660;10.164;2023-07-13T10:30:09;3.37;;;1.23;;
73675;SDS011;61975;48.660;10.164;2023-07-13T10:32:37;3.92;;;1.30;;
73675;SDS011;61975;48.660;10.164;2023-07-13T10:35:03;4.50;;;1.27;;
73675;SDS011;61975;48.660;10.164;2023-07-13T10:37:51;3.47;;;1.47;;
73675;SDS011;61975;48.660;10.164;2023-07-13T10:40:36;3.35;;;1.23;;
73675;SDS011;61975;48.660;10.164;2023-07-13T10:43:06;3.00;;;1.40;;
73675;SDS011;61975;48.660;10.164;2023-07-13T10:45:38;3.33;;;1.45;;
73675;SDS011;61975;48.660;10.164;2023-07-13T10:48:04;3.10;;;1.20;;
73675;SDS011;61975;48.660;10.164;2023-07-13T10:50:35;4.03;;;1.40;;
73675;SDS011;61975;48.660;10.164;2023-07-13T11:03:32;4.23;;;1.30;;
73675;SDS011;61975;48.660;10.164;2023-07-13T11:21:20;4.37;;;1.50;;
73675;SDS011;61975;48.660;10.164;2023-07-13T11:23:52;3.60;;;1.48;;
73675;SDS011;61975;48.660;10.164;2023-07-13T11:29:20;3.13;;;1.20;;
73675;SDS011;61975;48.660;10.164;2023-07-13T11:31:59;3.53;;;1.30;;
73675;SDS011;61975;48.660;10.164;2023-07-13T11:34:31;3.53;;;1.20;;
73675;SDS011;61975;48.660;10.164;2023-07-13T11:37:00;2.92;;;1.40;;
73675;SDS011;61975;48.660;10.164;2023-07-13T11:42:03;2.67;;;1.25;;
73675;SDS011;61975;48.660;10.164;2023-07-13T11:44:34;2.90;;;1.50;;
73675;SDS011;61975;48.660;10.164;2023-07-13T11:47:07;3.13;;;1.33;;
73675;SDS011;61975;48.660;10.164;2023-07-13T11:49:48;3.22;;;1.30;;
73675;SDS011;61975;48.660;10.164;2023-07-13T11:52:16;4.05;;;1.45;;
73675;SDS011;61975;48.660;10.164;2023-07-13T11:59:51;4.83;;;1.23;;
73675;SDS011;61975;48.660;10.164;2023-07-13T12:04:53;3.00;;;1.30;;
73675;SDS011;61975;48.660;10.164;2023-07-13T12:07:19;3.47;;;1.30;;
73675;SDS011;61975;48.660;10.164;2023-07-13T12:09:44;3.88;;;1.30;;
73675;SDS011;61975;48.660;10.164;2023-07-13T12:12:16;3.07;;;1.30;;
73675;SDS011;61975;48.660;10.164;2023-07-13T12:14:43;4.45;;;1.30;;
73675;SDS011;61975;48.660;10.164;2023-07-13T12:17:11;4.23;;;1.40;;
73675;SDS011;61975;48.660;10.164;2023-07-13T12:19:41;2.88;;;1.42;;
73675;SDS011;61975;48.660;10.164;2023-07-13T12:22:08;4.25;;;1.60;;
73675;SDS011;61975;48.660;10.164;2023-07-13T12:24:36;4.95;;;1.50;;
73675;SDS011;61975;48.660;10.164;2023-07-13T12:27:04;4.07;;;1.40;;
73675;SDS011;61975;48.660;10.164;2023-07-13T12:29:31;3.10;;;1.40;;
73675;SDS011;61975;48.660;10.164;2023-07-13T12:31:57;4.65;;;1.17;;
73675;SDS011;61975;48.660;10.164;2023-07-13T12:34:24;3.47;;;1.40;;
73675;SDS011;61975;48.660;10.164;2023-07-13T12:36:52;3.38;;;1.50;;
73675;SDS011;61975;48.660;10.164;2023-07-13T12:42:31;3.42;;;1.40;;
73675;SDS011;61975;48.660;10.164;2023-07-13T12:47:27;3.95;;;1.40;;
73675;SDS011;61975;48.660;10.164;2023-07-13T12:49:55;2.90;;;1.40;;
73675;SDS011;61975;48.660;10.164;2023-07-13T12:52:24;3.13;;;1.30;;
73675;SDS011;61975;48.660;10.164;2023-07-13T12:55:09;3.97;;;1.50;;
73675;SDS011;61975;48.660;10.164;2023-07-13T12:57:41;3.67;;;1.30;;
73675;SDS011;61975;48.660;10.164;2023-07-13T13:02:50;3.03;;;1.40;;
73675;SDS011;61975;48.660;10.164;2023-07-13T13:05:18;3.13;;;1.30;;
73675;SDS011;61975;48.660;10.164;2023-07-13T13:07:48;2.85;;;1.30;;
73675;SDS011;61975;48.660;10.164;2023-07-13T13:10:14;3.30;;;1.33;;
73675;SDS011;61975;48.660;10.164;2023-07-13T13:12:40;3.50;;;1.30;;
73675;SDS011;61975;48.660;10.164;2023-07-13T13:15:09;2.95;;;1.50;;
73675;SDS011;61975;48.660;10.164;2023-07-13T13:17:36;4.25;;;1.20;;
73675;SDS011;61975;48.660;10.164;2023-07-13T13:20:11;3.28;;;1.40;;
73675;SDS011;61975;48.660;10.164;2023-07-13T13:22:43;2.87;;;1.20;;
73675;SDS011;61975;48.660;10.164;2023-07-13T13:25:10;3.80;;;1.30;;
73675;SDS011;61975;48.660;10.164;2023-07-13T13:27:36;4.03;;;1.55;;
73675;SDS011;61975;48.660;10.164;2023-07-13T13:30:02;2.90;;;1.50;;
73675;SDS011;61975;48.660;10.164;2023-07-13T13:32:27;2.70;;;1.40;;
73675;SDS011;61975;48.660;10.164;2023-07-13T13:34:53;3.63;;;1.30;;
73675;SDS011;61975;48.660;10.164;2023-07-13T13:37:20;3.67;;;1.37;;
73675;SDS011;61975;48.660;10.164;2023-07-13T13:39:47;3.90;;;1.40;;
73675;SDS011;61975;48.660;10.164;2023-07-13T13:42:14;4.43;;;1.60;;
73675;SDS011;61975;48.660;10.164;2023-07-13T13:44:39;4.07;;;1.38;;
73675;SDS011;61975;48.660;10.164;2023-07-13T13:47:14;3.20;;;1.40;;
73675;SDS011;61975;48.660;10.164;2023-07-13T13:49:55;5.43;;;1.40;;
73675;SDS011;61975;48.660;10.164;2023-07-13T13:52:21;3.30;;;1.40;;
73675;SDS011;61975;48.660;10.164;2023-07-13T13:54:46;4.57;;;1.53;;
73675;SDS011;61975;48.660;10.164;2023-07-13T13:57:12;2.60;;;1.30;;
73675;SDS011;61975;48.660;10.164;2023-07-13T13:59:38;3.13;;;1.23;;
73675;SDS011;61975;48.660;10.164;2023-07-13T14:02:11;3.05;;;1.33;;
73675;SDS011;61975;48.660;10.164;2023-07-13T14:04:49;3.10;;;1.20;;
73675;SDS011;61975;48.660;10.164;2023-07-13T14:07:18;4.30;;;1.50;;
73675;SDS011;61975;48.660;10.164;2023-07-13T14:09:44;2.60;;;1.10;;
73675;SDS011;61975;48.660;10.164;2023-07-13T14:12:09;3.40;;;1.60;;
73675;SDS011;61975;48.660;10.164;2023-07-13T14:14:37;4.53;;;1.60;;
73675;SDS011;61975;48.660;10.164;2023-07-13T14:17:03;3.70;;;1.40;;
73675;SDS011;61975;48.660;10.164;2023-07-13T14:19:29;4.57;;;1.47;;
73675;SDS011;61975;48.660;10.164;2023-07-13T14:21:55;3.95;;;1.30;;
73675;SDS011;61975;48.660;10.164;2023-07-13T14:24:20;3.60;;;1.37;;
73675;SDS011;61975;48.660;10.164;2023-07-13T14:26:46;4.75;;;1.52;;
73675;SDS011;61975;48.660;10.164;2023-07-13T14:29:16;3.33;;;1.63;;
73675;SDS011;61975;48.660;10.164;2023-07-13T14:31:43;3.37;;;1.33;;
73675;SDS011;61975;48.660;10.164;2023-07-13T14:34:12;3.53;;;1.55;;
73675;SDS011;61975;48.660;10.164;2023-07-13T14:36:40;4.60;;;1.30;;
73675;SDS011;61975;48.660;10.164;2023-07-13T14:39:14;3.50;;;1.60;;
73675;SDS011;61975;48.660;10.164;2023-07-13T14:41:41;3.42;;;1.35;;
73675;SDS011;61975;48.660;10.164;2023-07-13T14:44:17;4.50;;;1.50;;
73675;SDS011;61975;48.660;10.164;2023-07-13T14:46:45;4.03;;;1.60;;
73675;SDS011;61975;48.660;10.164;2023-07-13T14:49:13;2.90;;;1.50;;
73675;SDS011;61975;48.660;10.164;2023-07-13T14:51:46;5.63;;;1.70;;
73675;SDS011;61975;48.660;10.164;2023-07-13T14:54:11;3.10;;;1.40;;
73675;SDS011;61975;48.660;10.164;2023-07-13T14:56:37;3.40;;;1.30;;
73675;SDS011;61975;48.660;10.164;2023-07-13T14:59:02;3.60;;;1.52;;
73675;SDS011;61975;48.660;10.164;2023-07-13T15:01:28;3.77;;;1.23;;
73675;SDS011;61975;48.660;10.164;2023-07-13T15:03:55;3.50;;;1.50;;
73675;SDS011;61975;48.660;10.164;2023-07-13T15:06:21;5.80;;;1.60;;
73675;SDS011;61975;48.660;10.164;2023-07-13T15:08:46;3.70;;;1.60;;
73675;SDS011;61975;48.660;10.164;2023-07-13T15:11:13;3.83;;;1.50;;
73675;SDS011;61975;48.660;10.164;2023-07-13T15:13:41;3.38;;;1.38;;
73675;SDS011;61975;48.660;10.164;2023-07-13T15:16:21;3.20;;;1.50;;
73675;SDS011;61975;48.660;10.164;2023-07-13T15:18:48;2.63;;;1.30;;
73675;SDS011;61975;48.660;10.164;2023-07-13T15:21:21;4.43;;;1.63;;
73675;SDS011;61975;48.660;10.164;2023-07-13T15:23:48;3.50;;;1.40;;
73675;SDS011;61975;48.660;10.164;2023-07-13T15:26:16;3.27;;;1.40;;
73675;SDS011;61975;48.660;10.164;2023-07-13T15:28:43;3.33;;;1.40;;
73675;SDS011;61975;48.660;10.164;2023-07-13T15:31:25;3.17;;;1.60;;
73675;SDS011;61975;48.660;10.164;2023-07-13T15:33:56;4.68;;;1.52;;
73675;SDS011;61975;48.660;10.164;2023-07-13T15:36:23;4.55;;;1.88;;
73675;SDS011;61975;48.660;10.164;2023-07-13T15:38:53;4.20;;;1.50;;
73675;SDS011;61975;48.660;10.164;2023-07-13T15:41:24;3.28;;;1.50;;
73675;SDS011;61975;48.660;10.164;2023-07-13T15:43:52;3.00;;;1.45;;
73675;SDS011;61975;48.660;10.164;2023-07-13T15:46:20;3.10;;;1.42;;
73675;SDS011;61975;48.660;10.164;2023-07-13T15:48:48;4.28;;;1.60;;